Charlottetown, Prince Edward Island

10:22 PM AST on January 19, 2017 (GMT -0400)
Charlottetown | | Change Station

Elev 177 ft 46.28 °N, 63.13 °W | Updated 22 minutes ago

Light Snow
Light Snow
28 °F
Feels Like 19 °F
N
10
Wind Variable Wind from South

Today
High -- | Low -- °F
--% Chance of Precip.
Yesterday
High -- | Low -- °F
Precip. -- in
Pressure 29.91 in
Visibility 6.0 miles
Clouds Few 600 ft
Mostly Cloudy 3300 ft
Overcast 5800 ft
Windchill 19 °F
Dew Point 27 °F
Humidity 93%
Rainfall 0.00 in
Snow Depth Not available.
7:48 AM 4:58 PM
Waning Gibbous, 48% visible
METAR CYYG 200200Z 17009KT 6SM -SN FEW006 BKN033 OVC058 M02/M03 A2989 RMK SF2SC4SC2 SLP126
Pressure 29.91 in
Visibility 6.0 miles
Clouds Few 600 ft
Mostly Cloudy 3300 ft
Overcast 5800 ft
Windchill 19 °F
Dew Point 27 °F
Humidity 93%
Rainfall 0.00 in
Snow Depth Not available.
7:48 AM 4:58 PM
Waning Gibbous, 48% visible
METAR CYYG 200200Z 17009KT 6SM -SN FEW006 BKN033 OVC058 M02/M03 A2989 RMK SF2SC4SC2 SLP126

Get Your Daily Forecast Email!

Thanks for signing up!

Be on the lookout for a verification email in your inbox.

You'll start receiving the daily forecast at 8 AM.

×

10-Day Weather Forecast

Almanac

Astronomy

Jan. 19, 2017 Rise Set
Actual Time
Civil Twilight
Nautical Twilight
Astronomical Twilight
Moon
Length of Visible Light
Length of Day
Tomorrow will be .
, % of the Moon is Illuminated

Today's Extremes

Country Highs Country Lows

Community

WunderPhotos

Upload Photos

1,962,540 photos uploaded!

WunderBlog® & News

Nearby

Air Quality

  Air Quality AQ Index Pollutant
Not available.

Snow Depth

Station Depth Elevation

Earthquake Activity

City Distance Mag. Time & Date
Minimum magnitude displayed is 2.5.

Coastal Water Temperatures

Place Temperature

Stations

Nearby Weather Stations

Station Location Temp. Windchill Dew Point Humidity Wind Precip. Elev Updated Type
                   

Watches & Warnings

There are currently no watches in effect.